HRYR

Kigali International Airport

Kigali, Rwanda
METAR HRYR 220730Z 32006KT 9999 BKN023 BKN100 18/16 Q1024 RERA NOSIG
Observed Flight Rules
May-22 @ 07:30 UTC (3 hours ago) Marginal Visual Flight Rules
Wind Visibility Clouds
320° at 6 knots 10,000+ meters
  • Broken at 2,300' AGL
  • Broken at 10,000' AGL
Temperatures Readings
Current 18°C / 64°F
Dewpoint 16°C / 61°F
Humidity 88%
Altimeter 30.24" Hg
Pressure 1024 hPa
Elevation 1497
METAR HRYR 220730Z 32006KT 9999 BKN023 BKN100 18/16 Q1024 RERA NOSIG
Observed Flight Rules
May-22 @ 07:30 UTC
(3 hours ago)
MVFR
Wind Visibility
320° at 6 knots 10,000+ meters
Clouds
  • Broken at 2,300' AGL
  • Broken at 10,000' AGL
Temperature Dewpoint
18°C / 64°F 16°C / 61°F
Humidity Altimeter Pressure
88% 30.24" Hg 1024 hPa